createdAt,value
2023-03-22T00:00:47.239Z,14.30
2023-03-22T00:03:33.281Z,14.30
2023-03-22T00:06:19.260Z,14.20
2023-03-22T00:09:05.072Z,14.20
2023-03-22T00:11:52.302Z,14.30
2023-03-22T00:14:38.434Z,14.40
2023-03-22T00:17:25.877Z,14.40
2023-03-22T00:20:12.411Z,14.40
2023-03-22T00:22:58.530Z,14.20
2023-03-22T00:25:45.282Z,14.30
2023-03-22T00:28:31.440Z,14.30
2023-03-22T00:31:17.814Z,14.30
2023-03-22T00:34:03.739Z,14.20
2023-03-22T00:36:51.980Z,14.20
2023-03-22T00:39:39.013Z,14.00
2023-03-22T00:42:25.544Z,14.00
2023-03-22T00:45:13.301Z,14.00
2023-03-22T00:47:58.939Z,14.10
2023-03-22T00:50:44.341Z,14.20
2023-03-22T00:53:30.371Z,14.10
2023-03-22T00:56:16.637Z,14.10
2023-03-22T00:59:24.766Z,14.10
2023-03-22T01:02:13.568Z,14.20
2023-03-22T01:04:59.053Z,14.20
2023-03-22T01:07:45.484Z,14.20
2023-03-22T01:10:31.254Z,14.00
2023-03-22T01:13:18.112Z,13.90
2023-03-22T01:16:05.763Z,13.90
2023-03-22T01:18:52.271Z,13.90
2023-03-22T01:21:37.863Z,14.00
2023-03-22T01:24:23.934Z,14.10
2023-03-22T01:27:09.444Z,14.20
2023-03-22T01:29:55.741Z,14.20
2023-03-22T01:32:43.052Z,14.10
2023-03-22T01:35:29.050Z,14.10
2023-03-22T01:38:14.839Z,14.10
2023-03-22T01:41:09.671Z,14.10
2023-03-22T01:44:13.267Z,14.10
2023-03-22T01:46:59.326Z,14.00
2023-03-22T01:49:46.647Z,14.10
2023-03-22T01:52:32.434Z,14.20
2023-03-22T01:55:26.094Z,14.10
2023-03-22T01:58:35.731Z,14.10
2023-03-22T02:01:23.824Z,14.00
2023-03-22T02:04:25.663Z,14.00
2023-03-22T02:07:16.016Z,14.00
2023-03-22T02:10:09.882Z,14.00
2023-03-22T02:13:19.238Z,14.00
2023-03-22T02:16:40.719Z,14.00
2023-03-22T02:19:42.409Z,14.00
2023-03-22T02:22:38.776Z,14.00
2023-03-22T02:25:59.772Z,13.90
2023-03-22T02:28:56.355Z,13.90
2023-03-22T02:32:26.372Z,13.90
2023-03-22T02:35:56.095Z,13.90
2023-03-22T02:39:04.813Z,13.80
2023-03-22T02:42:12.328Z,13.70
2023-03-22T02:45:30.287Z,13.60
2023-03-22T02:48:33.308Z,13.50
2023-03-22T02:51:30.056Z,13.40
2023-03-22T02:54:24.929Z,13.50
2023-03-22T02:57:20.565Z,13.40
2023-03-22T03:00:12.484Z,13.30
2023-03-22T03:03:11.272Z,13.20
2023-03-22T03:06:08.495Z,13.10
2023-03-22T03:08:58.056Z,13.10
2023-03-22T03:11:53.266Z,13.10
2023-03-22T03:14:40.387Z,13.00
2023-03-22T03:18:22.976Z,13.00
2023-03-22T03:21:18.169Z,13.00
2023-03-22T03:24:20.060Z,13.10
2023-03-22T03:27:17.890Z,13.00
2023-03-22T03:30:27.191Z,13.00
2023-03-22T03:33:17.646Z,12.90
2023-03-22T03:36:09.786Z,12.90
2023-03-22T03:38:56.802Z,12.90
2023-03-22T03:41:47.777Z,12.90
2023-03-22T03:44:36.630Z,13.00
2023-03-22T03:47:24.301Z,13.00
2023-03-22T03:50:09.980Z,12.90
2023-03-22T03:52:56.672Z,12.80
2023-03-22T03:55:42.826Z,12.80
2023-03-22T03:58:30.504Z,12.60
2023-03-22T04:01:19.677Z,12.50
2023-03-22T04:04:05.522Z,12.50
2023-03-22T04:07:00.694Z,12.50
2023-03-22T04:09:48.638Z,12.40
2023-03-22T04:12:40.488Z,12.50
2023-03-22T04:15:30.621Z,12.50
2023-03-22T04:18:21.521Z,12.50
2023-03-22T04:21:07.796Z,12.50
2023-03-22T04:24:04.002Z,12.60
2023-03-22T04:26:55.151Z,12.60
2023-03-22T04:29:49.239Z,12.30
2023-03-22T04:32:52.504Z,12.20
2023-03-22T04:35:46.460Z,12.40
2023-03-22T04:38:33.059Z,12.50
2023-03-22T04:41:19.056Z,12.50
2023-03-22T04:44:09.609Z,12.60
2023-03-22T04:47:01.007Z,12.60
2023-03-22T04:49:46.966Z,12.50
2023-03-22T04:52:34.826Z,12.60
2023-03-22T04:55:21.850Z,12.20
2023-03-22T04:58:07.977Z,12.20
2023-03-22T05:00:55.202Z,12.30
2023-03-22T05:03:48.623Z,12.30
2023-03-22T05:06:38.939Z,12.30
2023-03-22T05:09:37.649Z,12.30
2023-03-22T05:12:23.355Z,12.30
2023-03-22T05:15:17.312Z,12.40
2023-03-22T05:18:04.069Z,12.40
2023-03-22T05:20:51.274Z,12.40
2023-03-22T05:23:43.856Z,12.30
2023-03-22T05:26:30.570Z,12.30
2023-03-22T05:29:16.832Z,12.30
2023-03-22T05:32:25.691Z,12.10
2023-03-22T05:35:14.230Z,12.10
2023-03-22T05:38:06.311Z,12.10
2023-03-22T05:49:40.034Z,11.90
2023-03-22T05:52:27.800Z,11.90
2023-03-22T05:55:32.902Z,11.80
2023-03-22T05:58:21.990Z,12.00
2023-03-22T06:01:14.003Z,12.10
2023-03-22T06:04:05.702Z,12.30
2023-03-22T06:07:06.462Z,12.40
2023-03-22T06:10:00.110Z,12.40
2023-03-22T06:12:49.003Z,12.50
2023-03-22T06:15:42.767Z,12.60
2023-03-22T06:18:34.975Z,12.80
2023-03-22T06:21:26.298Z,12.90
2023-03-22T06:24:12.500Z,13.00
2023-03-22T06:26:58.551Z,13.10
2023-03-22T06:29:44.920Z,13.30
2023-03-22T06:32:31.172Z,13.40
2023-03-22T06:35:17.419Z,13.60
2023-03-22T06:38:04.870Z,13.80
2023-03-22T06:40:51.380Z,14.10
2023-03-22T06:43:37.263Z,14.20
2023-03-22T06:46:41.546Z,14.30
2023-03-22T06:49:40.309Z,14.40
2023-03-22T06:52:27.091Z,14.40
2023-03-22T06:55:14.992Z,14.50
2023-03-22T06:58:02.296Z,14.60
2023-03-22T07:00:50.006Z,14.60
2023-03-22T07:03:39.129Z,14.50
2023-03-22T07:06:32.757Z,14.40
2023-03-22T07:09:19.057Z,14.60
2023-03-22T07:12:08.415Z,14.60
2023-03-22T07:14:54.691Z,14.80
2023-03-22T07:17:53.904Z,14.90
2023-03-22T07:20:42.222Z,15.00
2023-03-22T07:23:30.278Z,15.20
2023-03-22T07:26:23.079Z,15.30
2023-03-22T07:29:10.102Z,14.90
2023-03-22T07:31:57.453Z,14.50
2023-03-22T07:34:48.322Z,14.30
2023-03-22T07:37:37.143Z,14.50
2023-03-22T07:40:30.993Z,14.50
2023-03-22T07:43:17.767Z,14.30
2023-03-22T07:46:14.984Z,14.30
2023-03-22T07:49:18.399Z,14.80
2023-03-22T07:52:24.473Z,15.20
2023-03-22T07:55:12.610Z,16.50
2023-03-22T07:58:01.045Z,15.90
2023-03-22T08:00:49.837Z,15.90
2023-03-22T08:03:55.225Z,16.60
2023-03-22T08:06:55.278Z,18.00
2023-03-22T08:09:41.672Z,18.10
2023-03-22T08:12:28.415Z,19.50
2023-03-22T08:15:27.213Z,20.40
2023-03-22T08:18:14.123Z,21.70
2023-03-22T08:21:02.559Z,21.70
2023-03-22T08:23:56.063Z,21.20
2023-03-22T08:26:45.835Z,21.30
2023-03-22T08:29:39.573Z,20.90
2023-03-22T08:32:26.407Z,21.60
2023-03-22T08:35:13.139Z,21.70
2023-03-22T08:38:10.902Z,21.80
2023-03-22T08:41:06.024Z,22.60
2023-03-22T08:43:53.199Z,23.00
2023-03-22T08:46:40.727Z,22.00
2023-03-22T08:49:28.374Z,22.00
2023-03-22T08:52:21.027Z,22.50
2023-03-22T08:58:30.764Z,24.80
2023-03-22T09:01:47.286Z,25.40
2023-03-22T09:04:34.003Z,22.80
2023-03-22T09:07:22.711Z,23.80
2023-03-22T09:10:23.589Z,21.30
2023-03-22T09:13:10.776Z,22.30
2023-03-22T09:15:58.000Z,23.60
2023-03-22T09:18:47.283Z,23.80
2023-03-22T09:21:39.869Z,24.50
2023-03-22T09:24:37.453Z,24.50
2023-03-22T09:27:24.027Z,24.90
2023-03-22T09:30:11.437Z,26.10
2023-03-22T09:32:58.535Z,26.40
2023-03-22T09:35:44.779Z,26.50
2023-03-22T09:38:36.066Z,25.60
2023-03-22T09:41:33.147Z,25.50
2023-03-22T09:44:32.327Z,25.10
2023-03-22T09:47:45.217Z,27.10
2023-03-22T09:50:33.642Z,26.90
2023-03-22T09:53:21.589Z,26.10
2023-03-22T09:56:29.481Z,26.30
2023-03-22T09:59:26.296Z,26.10
2023-03-22T10:02:47.477Z,26.20
2023-03-22T10:06:02.692Z,27.00
2023-03-22T10:09:14.220Z,26.80
2023-03-22T10:12:25.142Z,26.40
2023-03-22T10:15:28.661Z,26.80
2023-03-22T10:18:24.963Z,26.20
2023-03-22T10:21:16.787Z,25.70
2023-03-22T10:24:16.875Z,24.60
2023-03-22T10:27:03.729Z,25.00
2023-03-22T10:29:57.480Z,26.00
2023-03-22T10:32:57.774Z,25.50
2023-03-22T10:35:44.314Z,26.30
2023-03-22T10:38:32.106Z,27.70
2023-03-22T10:41:24.912Z,29.60
2023-03-22T10:44:19.230Z,29.70
2023-03-22T10:47:08.575Z,28.80
2023-03-22T10:49:57.710Z,27.90
2023-03-22T10:53:02.557Z,28.60
2023-03-22T10:55:49.378Z,28.40
2023-03-22T10:58:36.254Z,27.60
2023-03-22T11:01:32.494Z,24.60
2023-03-22T11:04:22.552Z,26.30
2023-03-22T11:07:26.363Z,26.70
2023-03-22T11:10:27.662Z,28.70
2023-03-22T11:13:21.888Z,29.40
2023-03-22T11:16:10.432Z,30.00
2023-03-22T11:19:01.481Z,31.70
2023-03-22T11:21:48.699Z,31.20
2023-03-22T11:24:35.455Z,31.90
2023-03-22T11:27:36.878Z,29.70
2023-03-22T11:30:28.673Z,28.50
2023-03-22T11:33:22.332Z,26.30
2023-03-22T11:36:19.561Z,27.20
2023-03-22T11:39:08.322Z,26.80
2023-03-22T11:42:02.223Z,25.20
2023-03-22T11:44:49.448Z,28.20
2023-03-22T11:47:41.690Z,28.50
2023-03-22T11:50:32.724Z,23.90
2023-03-22T11:53:23.449Z,21.80
2023-03-22T11:56:17.645Z,21.50
2023-03-22T11:59:09.233Z,20.60
2023-03-22T12:02:24.272Z,21.10
2023-03-22T12:05:29.588Z,21.90
2023-03-22T12:08:43.696Z,20.90
2023-03-22T12:11:37.693Z,21.20
2023-03-22T12:14:29.309Z,21.10
2023-03-22T12:17:58.399Z,20.30
2023-03-22T12:20:58.025Z,21.20
2023-03-22T12:23:44.045Z,21.50
2023-03-22T12:26:33.482Z,21.50
2023-03-22T12:29:21.265Z,21.60
2023-03-22T12:32:17.027Z,21.50
2023-03-22T12:35:17.097Z,20.50
2023-03-22T12:38:30.574Z,20.40
2023-03-22T12:41:25.646Z,20.80
2023-03-22T12:44:27.324Z,21.00
2023-03-22T12:47:23.268Z,21.60
2023-03-22T12:50:58.659Z,21.10
2023-03-22T12:53:54.442Z,20.60
2023-03-22T12:56:43.537Z,20.40
2023-03-22T12:59:31.547Z,20.90
2023-03-22T13:02:30.586Z,21.00
2023-03-22T13:05:21.173Z,20.60
2023-03-22T13:08:07.187Z,20.80
2023-03-22T13:11:04.013Z,20.50
2023-03-22T13:13:51.150Z,20.40
2023-03-22T13:16:52.192Z,20.40
2023-03-22T13:19:38.090Z,20.40
2023-03-22T13:22:38.338Z,21.00
2023-03-22T13:25:30.837Z,21.50
2023-03-22T13:28:28.169Z,21.70
2023-03-22T13:31:32.528Z,21.40
2023-03-22T13:34:37.929Z,21.50
2023-03-22T13:37:49.368Z,20.90
2023-03-22T13:40:47.274Z,21.20
2023-03-22T13:43:50.472Z,20.70
2023-03-22T13:46:36.660Z,20.70
2023-03-22T13:49:23.347Z,20.50
2023-03-22T13:52:22.334Z,20.40
2023-03-22T13:55:37.254Z,21.00
2023-03-22T13:58:41.525Z,21.20
2023-03-22T14:01:37.705Z,21.10
2023-03-22T14:04:32.288Z,20.90
2023-03-22T14:07:42.321Z,20.80
2023-03-22T14:10:51.593Z,20.80
2023-03-22T14:13:44.653Z,20.80
2023-03-22T14:16:51.132Z,20.60
2023-03-22T14:19:38.742Z,20.70
